<?xml version="1.0" encoding="UTF-8"?>
<gpx xmlns="http://www.topografix.com/GPX/1/1" xmlns:gpsies="https://www.gpsies.com/GPX/1/0" creator="AllTrails https://www.alltrails.com/ - Gpsies_ivvpw" version="1.1" xmlns:xsi="http://www.w3.org/2001/XMLSchema-instance" xsi:schemaLocation="http://www.topografix.com/GPX/1/1 http://www.topografix.com/GPX/1/1/gpx.xsd https://www.gpsies.com/GPX/1/0 https://www.gpsies.com/gpsies.xsd">
  <metadata>
    <name>Gpsies_ivvpw</name>
    <link href="https://www.gpsies.com/">
      <text>Gpsies_ivvpw on AllTrails</text>
    </link>
    <time>2020-02-19T20:01:52Z</time>
  </metadata>
  <trk>
    <name>DVV Titisee-Neustadt OT Waldau-Schwarzwald</name>
    <link href="https://www.gpsies.com/map.do?fileId=gogmhetigzaecahc">
      <type>trackOnWeb</type>
    </link>
    <link href="https://www.gpsies.com/charts/go/map/gogmhetigzaecahc_map.png">
      <type>elevationChartUrlMap</type>
    </link>
    <link href="https://www.gpsies.com/charts/go/mapThumb/gogmhetigzaecahc_mapThumb.png">
      <type>elevationChartUrlMapThumb</type>
    </link>
    <link href="https://www.gpsies.com/charts/go/tab/gogmhetigzaecahc_tab.png">
      <type>elevationChartUrlTab</type>
    </link>
    <trkseg>
      <trkpt lat="47.98161680" lon="8.163871800">
        <ele>964.00000</ele>
        <time>2010-05-05T09:41:35Z</time>
      </trkpt>
      <trkpt lat="47.98155580" lon="8.163732300">
        <ele>964.00000</ele>
        <time>2010-05-05T09:41:39Z</time>
      </trkpt>
      <trkpt lat="47.98171380" lon="8.163351400">
        <ele>964.00000</ele>
        <time>2010-05-05T09:41:51Z</time>
      </trkpt>
      <trkpt lat="47.98187180" lon="8.163099300">
        <ele>964.00000</ele>
        <time>2010-05-05T09:42:01Z</time>
      </trkpt>
      <trkpt lat="47.98202620" lon="8.162916900">
        <ele>964.00000</ele>
        <time>2010-05-05T09:42:09Z</time>
      </trkpt>
      <trkpt lat="47.98218060" lon="8.162713100">
        <ele>974.00000</ele>
        <time>2010-05-05T09:42:17Z</time>
      </trkpt>
      <trkpt lat="47.98246420" lon="8.162519900">
        <ele>974.00000</ele>
        <time>2010-05-05T09:42:29Z</time>
      </trkpt>
      <trkpt lat="47.98295980" lon="8.162283900">
        <ele>989.00000</ele>
        <time>2010-05-05T09:42:50Z</time>
      </trkpt>
      <trkpt lat="47.98314650" lon="8.162155200">
        <ele>989.00000</ele>
        <time>2010-05-05T09:42:58Z</time>
      </trkpt>
      <trkpt lat="47.98335110" lon="8.161945900">
        <ele>982.00000</ele>
        <time>2010-05-05T09:43:08Z</time>
      </trkpt>
      <trkpt lat="47.98351990" lon="8.161613300">
        <ele>982.00000</ele>
        <time>2010-05-05T09:43:19Z</time>
      </trkpt>
      <trkpt lat="47.98357020" lon="8.161291500">
        <ele>982.00000</ele>
        <time>2010-05-05T09:43:28Z</time>
      </trkpt>
      <trkpt lat="47.98357380" lon="8.160958900">
        <ele>978.00000</ele>
        <time>2010-05-05T09:43:37Z</time>
      </trkpt>
      <trkpt lat="47.98356660" lon="8.160798000">
        <ele>978.00000</ele>
        <time>2010-05-05T09:43:42Z</time>
      </trkpt>
      <trkpt lat="47.98375690" lon="8.160749700">
        <ele>990.00000</ele>
        <time>2010-05-05T09:43:49Z</time>
      </trkpt>
      <trkpt lat="47.98390410" lon="8.160781900">
        <ele>990.00000</ele>
        <time>2010-05-05T09:43:55Z</time>
      </trkpt>
      <trkpt lat="47.98410160" lon="8.160862300">
        <ele>990.00000</ele>
        <time>2010-05-05T09:44:03Z</time>
      </trkpt>
      <trkpt lat="47.98430980" lon="8.160857000">
        <ele>990.00000</ele>
        <time>2010-05-05T09:44:12Z</time>
      </trkpt>
      <trkpt lat="47.98441040" lon="8.160738900">
        <ele>990.00000</ele>
        <time>2010-05-05T09:44:17Z</time>
      </trkpt>
      <trkpt lat="47.98448220" lon="8.160513600">
        <ele>990.00000</ele>
        <time>2010-05-05T09:44:24Z</time>
      </trkpt>
      <trkpt lat="47.98451810" lon="8.160325900">
        <ele>987.00000</ele>
        <time>2010-05-05T09:44:29Z</time>
      </trkpt>
      <trkpt lat="47.98455760" lon="8.160095210">
        <ele>987.00000</ele>
      </trkpt>
      <trkpt lat="47.98462220" lon="8.159934280">
        <ele>998.00000</ele>
      </trkpt>
      <trkpt lat="47.98474430" lon="8.159848450">
        <ele>998.00000</ele>
      </trkpt>
      <trkpt lat="47.98486640" lon="8.159987920">
        <ele>998.00000</ele>
      </trkpt>
      <trkpt lat="47.98503150" lon="8.160030840">
        <ele>998.00000</ele>
      </trkpt>
      <trkpt lat="47.98513930" lon="8.159859180">
        <ele>998.00000</ele>
      </trkpt>
      <trkpt lat="47.98524700" lon="8.159784070">
        <ele>998.00000</ele>
      </trkpt>
      <trkpt lat="47.98541930" lon="8.159751890">
        <ele>1004.0000</ele>
      </trkpt>
      <trkpt lat="47.98565630" lon="8.159730430">
        <ele>1004.0000</ele>
      </trkpt>
      <trkpt lat="47.98583580" lon="8.159773340">
        <ele>1004.0000</ele>
        <time>2010-05-05T09:45:17Z</time>
      </trkpt>
      <trkpt lat="47.98605120" lon="8.160052290">
        <ele>1004.0000</ele>
        <time>2010-05-05T09:45:27Z</time>
      </trkpt>
      <trkpt lat="47.98639590" lon="8.160449260">
        <ele>1019.0000</ele>
      </trkpt>
      <trkpt lat="47.98660420" lon="8.160696000">
        <ele>1019.0000</ele>
        <time>2010-05-05T09:45:54Z</time>
      </trkpt>
      <trkpt lat="47.98673340" lon="8.160808700">
        <ele>1019.0000</ele>
        <time>2010-05-05T09:46:00Z</time>
      </trkpt>
      <trkpt lat="47.98690580" lon="8.161168100">
        <ele>1019.0000</ele>
        <time>2010-05-05T09:46:12Z</time>
      </trkpt>
      <trkpt lat="47.98707090" lon="8.161463100">
        <ele>1025.0000</ele>
        <time>2010-05-05T09:46:22Z</time>
      </trkpt>
      <trkpt lat="47.98741310" lon="8.161841100">
        <ele>1038.0000</ele>
        <time>2010-05-05T09:46:39Z</time>
      </trkpt>
      <trkpt lat="47.98770060" lon="8.162016500">
        <ele>1038.0000</ele>
        <time>2010-05-05T09:46:52Z</time>
      </trkpt>
      <trkpt lat="47.98850000" lon="8.162148100">
        <ele>1062.0000</ele>
        <time>2010-05-05T09:47:24Z</time>
      </trkpt>
      <trkpt lat="47.98898520" lon="8.162334500">
        <ele>1077.0000</ele>
        <time>2010-05-05T09:47:44Z</time>
      </trkpt>
      <trkpt lat="47.98934450" lon="8.162619700">
        <ele>1077.0000</ele>
        <time>2010-05-05T09:48:00Z</time>
      </trkpt>
      <trkpt lat="47.98989240" lon="8.163189900">
        <ele>1080.0000</ele>
        <time>2010-05-05T09:48:27Z</time>
      </trkpt>
      <trkpt lat="47.99000780" lon="8.163710830">
        <ele>1080.0000</ele>
        <time>2010-05-05T09:48:41Z</time>
      </trkpt>
      <trkpt lat="47.99017290" lon="8.164558410">
        <ele>1079.0000</ele>
        <time>2010-05-05T09:49:04Z</time>
      </trkpt>
      <trkpt lat="47.99045300" lon="8.165266510">
        <ele>1058.0000</ele>
        <time>2010-05-05T09:49:25Z</time>
      </trkpt>
      <trkpt lat="47.99076890" lon="8.165684930">
        <ele>1060.0000</ele>
        <time>2010-05-05T09:49:39Z</time>
      </trkpt>
      <trkpt lat="47.99099870" lon="8.166038990">
        <ele>1060.0000</ele>
        <time>2010-05-05T09:49:51Z</time>
      </trkpt>
      <trkpt lat="47.99132180" lon="8.166253560">
        <ele>1061.0000</ele>
        <time>2010-05-05T09:50:07Z</time>
      </trkpt>
      <trkpt lat="47.99163770" lon="8.166135540">
        <ele>1053.0000</ele>
      </trkpt>
      <trkpt lat="47.99194050" lon="8.166589500">
        <ele>1061.0000</ele>
        <time>2010-05-05T09:50:34Z</time>
      </trkpt>
      <trkpt lat="47.99258490" lon="8.167601100">
        <ele>1075.0000</ele>
        <time>2010-05-05T09:51:11Z</time>
      </trkpt>
      <trkpt lat="47.99278650" lon="8.168045280">
        <ele>1077.0000</ele>
        <time>2010-05-05T09:51:32Z</time>
      </trkpt>
      <trkpt lat="47.99295170" lon="8.168302770">
        <ele>1076.0000</ele>
      </trkpt>
      <trkpt lat="47.99303780" lon="8.168667550">
        <ele>1076.0000</ele>
      </trkpt>
      <trkpt lat="47.99309530" lon="8.169150350">
        <ele>1083.0000</ele>
        <time>2010-05-05T09:51:54Z</time>
      </trkpt>
      <trkpt lat="47.99298760" lon="8.169654600">
        <ele>1088.0000</ele>
      </trkpt>
      <trkpt lat="47.99266450" lon="8.170169590">
        <ele>1066.0000</ele>
      </trkpt>
      <trkpt lat="47.99243470" lon="8.170781130">
        <ele>1071.0000</ele>
      </trkpt>
      <trkpt lat="47.99229110" lon="8.171607300">
        <ele>1075.0000</ele>
        <time>2010-05-05T09:53:07Z</time>
      </trkpt>
      <trkpt lat="47.99226960" lon="8.172529930">
        <ele>1079.0000</ele>
        <time>2010-05-05T09:53:30Z</time>
      </trkpt>
      <trkpt lat="47.99183040" lon="8.173654600">
        <ele>1070.0000</ele>
        <time>2010-05-05T09:54:06Z</time>
      </trkpt>
      <trkpt lat="47.99169560" lon="8.174427800">
        <ele>1076.0000</ele>
        <time>2010-05-05T09:54:27Z</time>
      </trkpt>
      <trkpt lat="47.99163050" lon="8.174825900">
        <ele>1080.0000</ele>
      </trkpt>
      <trkpt lat="47.99177410" lon="8.175244330">
        <ele>1080.0000</ele>
      </trkpt>
      <trkpt lat="47.99200390" lon="8.175469630">
        <ele>1078.0000</ele>
        <time>2010-05-05T09:54:42Z</time>
      </trkpt>
      <trkpt lat="47.99216900" lon="8.175705670">
        <ele>1086.0000</ele>
        <time>2010-05-05T09:55:12Z</time>
      </trkpt>
      <trkpt lat="47.99235560" lon="8.176895100">
        <ele>1087.0000</ele>
        <time>2010-05-05T09:55:49Z</time>
      </trkpt>
      <trkpt lat="47.99237730" lon="8.177261350">
        <ele>1087.0000</ele>
      </trkpt>
      <trkpt lat="47.99264290" lon="8.178066010">
        <ele>1089.0000</ele>
        <time>2010-05-05T09:56:21Z</time>
      </trkpt>
      <trkpt lat="47.99298760" lon="8.179181810">
        <ele>1090.0000</ele>
        <time>2010-05-05T09:56:53Z</time>
      </trkpt>
      <trkpt lat="47.99339680" lon="8.179965010">
        <ele>1090.0000</ele>
        <time>2010-05-05T09:57:23Z</time>
      </trkpt>
      <trkpt lat="47.99331230" lon="8.180678400">
        <ele>1089.0000</ele>
        <time>2010-05-05T09:57:42Z</time>
      </trkpt>
      <trkpt lat="47.99317760" lon="8.181451500">
        <ele>1090.0000</ele>
        <time>2010-05-05T09:58:04Z</time>
      </trkpt>
      <trkpt lat="47.99267880" lon="8.182175200">
        <ele>1099.0000</ele>
        <time>2010-05-05T09:58:32Z</time>
      </trkpt>
      <trkpt lat="47.99235540" lon="8.183096400">
        <ele>1101.0000</ele>
        <time>2010-05-05T09:58:59Z</time>
      </trkpt>
      <trkpt lat="47.99222070" lon="8.184017600">
        <ele>1103.0000</ele>
        <time>2010-05-05T09:59:25Z</time>
      </trkpt>
      <trkpt lat="47.99238240" lon="8.184873000">
        <ele>1105.0000</ele>
        <time>2010-05-05T09:59:49Z</time>
      </trkpt>
      <trkpt lat="47.99267880" lon="8.185958700">
        <ele>1107.0000</ele>
        <time>2010-05-05T10:00:20Z</time>
      </trkpt>
      <trkpt lat="47.99286750" lon="8.186698900">
        <ele>1109.0000</ele>
        <time>2010-05-05T10:00:41Z</time>
      </trkpt>
      <trkpt lat="47.99280010" lon="8.187455600">
        <ele>1111.0000</ele>
        <time>2010-05-05T10:01:02Z</time>
      </trkpt>
      <trkpt lat="47.99255760" lon="8.188508400">
        <ele>1113.0000</ele>
        <time>2010-05-05T10:01:31Z</time>
      </trkpt>
      <trkpt lat="47.99232850" lon="8.189890100">
        <ele>1116.0000</ele>
        <time>2010-05-05T10:02:10Z</time>
      </trkpt>
      <trkpt lat="47.99215340" lon="8.191074500">
        <ele>1118.0000</ele>
        <time>2010-05-05T10:02:42Z</time>
      </trkpt>
      <trkpt lat="47.99164780" lon="8.192118900">
        <ele>1110.0000</ele>
        <time>2010-05-05T10:03:17Z</time>
      </trkpt>
      <trkpt lat="47.99093370" lon="8.193221100">
        <ele>1103.0000</ele>
        <time>2010-05-05T10:03:58Z</time>
      </trkpt>
      <trkpt lat="47.99056990" lon="8.193632300">
        <ele>1103.0000</ele>
        <time>2010-05-05T10:04:16Z</time>
      </trkpt>
      <trkpt lat="47.98992310" lon="8.194092900">
        <ele>1101.0000</ele>
        <time>2010-05-05T10:04:45Z</time>
      </trkpt>
      <trkpt lat="47.98916860" lon="8.194306800">
        <ele>1101.0000</ele>
        <time>2010-05-05T10:05:15Z</time>
      </trkpt>
      <trkpt lat="47.98838700" lon="8.194339600">
        <ele>1101.0000</ele>
        <time>2010-05-05T10:05:47Z</time>
      </trkpt>
      <trkpt lat="47.98778180" lon="8.194352380">
        <ele>1101.0000</ele>
        <time>2010-05-05T10:06:13Z</time>
      </trkpt>
      <trkpt lat="47.98755920" lon="8.194062700">
        <ele>1101.0000</ele>
      </trkpt>
      <trkpt lat="47.98730790" lon="8.194094890">
        <ele>1101.0000</ele>
      </trkpt>
      <trkpt lat="47.98704220" lon="8.194373840">
        <ele>1101.0000</ele>
        <time>2010-05-05T10:06:41Z</time>
      </trkpt>
      <trkpt lat="47.98669030" lon="8.194577690">
        <ele>1101.0000</ele>
        <time>2010-05-05T10:06:55Z</time>
      </trkpt>
      <trkpt lat="47.98597490" lon="8.195079900">
        <ele>1101.0000</ele>
        <time>2010-05-05T10:07:28Z</time>
      </trkpt>
      <trkpt lat="47.98528770" lon="8.195803600">
        <ele>1105.0000</ele>
        <time>2010-05-05T10:08:01Z</time>
      </trkpt>
      <trkpt lat="47.98469480" lon="8.196527400">
        <ele>1106.0000</ele>
        <time>2010-05-05T10:08:32Z</time>
      </trkpt>
      <trkpt lat="47.98435790" lon="8.196741200">
        <ele>1108.0000</ele>
        <time>2010-05-05T10:08:47Z</time>
      </trkpt>
      <trkpt lat="47.98391330" lon="8.196527400">
        <ele>1108.0000</ele>
        <time>2010-05-05T10:09:05Z</time>
      </trkpt>
      <trkpt lat="47.98341470" lon="8.195935200">
        <ele>1101.0000</ele>
        <time>2010-05-05T10:09:31Z</time>
      </trkpt>
      <trkpt lat="47.98263320" lon="8.195014100">
        <ele>1100.0000</ele>
        <time>2010-05-05T10:10:11Z</time>
      </trkpt>
      <trkpt lat="47.98178430" lon="8.194323200">
        <ele>1101.0000</ele>
        <time>2010-05-05T10:10:49Z</time>
      </trkpt>
      <trkpt lat="47.98112390" lon="8.193879100">
        <ele>1111.0000</ele>
        <time>2010-05-05T10:11:18Z</time>
      </trkpt>
      <trkpt lat="47.98067930" lon="8.193829700">
        <ele>1111.0000</ele>
        <time>2010-05-05T10:11:36Z</time>
      </trkpt>
      <trkpt lat="47.98041660" lon="8.194117700">
        <ele>1120.0000</ele>
        <time>2010-05-05T10:11:49Z</time>
      </trkpt>
      <trkpt lat="47.97995850" lon="8.194298600">
        <ele>1120.0000</ele>
        <time>2010-05-05T10:12:08Z</time>
      </trkpt>
      <trkpt lat="47.97943300" lon="8.194331500">
        <ele>1120.0000</ele>
        <time>2010-05-05T10:12:29Z</time>
      </trkpt>
      <trkpt lat="47.97902870" lon="8.194183500">
        <ele>1120.0000</ele>
        <time>2010-05-05T10:12:46Z</time>
      </trkpt>
      <trkpt lat="47.97857060" lon="8.194019000">
        <ele>1120.0000</ele>
        <time>2010-05-05T10:13:05Z</time>
      </trkpt>
      <trkpt lat="47.97838200" lon="8.193969600">
        <ele>1120.0000</ele>
        <time>2010-05-05T10:13:12Z</time>
      </trkpt>
      <trkpt lat="47.97796420" lon="8.193953200">
        <ele>1120.0000</ele>
        <time>2010-05-05T10:13:29Z</time>
      </trkpt>
      <trkpt lat="47.97740470" lon="8.194245100">
        <ele>1110.0000</ele>
        <time>2010-05-05T10:13:53Z</time>
      </trkpt>
      <trkpt lat="47.97684450" lon="8.194625970">
        <ele>1100.0000</ele>
        <time>2010-05-05T10:14:19Z</time>
      </trkpt>
      <trkpt lat="47.97640630" lon="8.194856640">
        <ele>1100.0000</ele>
        <time>2010-05-05T10:14:35Z</time>
      </trkpt>
      <trkpt lat="47.97685160" lon="8.194620600">
        <ele>1100.0000</ele>
        <time>2010-05-05T10:14:51Z</time>
      </trkpt>
      <trkpt lat="47.97740830" lon="8.194250460">
        <ele>1110.0000</ele>
        <time>2010-05-05T10:15:17Z</time>
      </trkpt>
      <trkpt lat="47.97770990" lon="8.194068070">
        <ele>1110.0000</ele>
        <time>2010-05-05T10:15:30Z</time>
      </trkpt>
      <trkpt lat="47.97775300" lon="8.193955420">
        <ele>1110.0000</ele>
      </trkpt>
      <trkpt lat="47.97769910" lon="8.193665740">
        <ele>1113.0000</ele>
      </trkpt>
      <trkpt lat="47.97722970" lon="8.193626300">
        <ele>1113.0000</ele>
      </trkpt>
      <trkpt lat="47.97677160" lon="8.193461700">
        <ele>1112.0000</ele>
      </trkpt>
      <trkpt lat="47.97639430" lon="8.193001100">
        <ele>1112.0000</ele>
      </trkpt>
      <trkpt lat="47.97601700" lon="8.192409000">
        <ele>1115.0000</ele>
      </trkpt>
      <trkpt lat="47.97558590" lon="8.191849700">
        <ele>1109.0000</ele>
      </trkpt>
      <trkpt lat="47.97540800" lon="8.191595070">
        <ele>1106.0000</ele>
      </trkpt>
      <trkpt lat="47.97534330" lon="8.191422000">
        <ele>1106.0000</ele>
      </trkpt>
      <trkpt lat="47.97534340" lon="8.191257110">
        <ele>1106.0000</ele>
      </trkpt>
      <trkpt lat="47.97539360" lon="8.191106910">
        <ele>1096.0000</ele>
      </trkpt>
      <trkpt lat="47.97552290" lon="8.191015720">
        <ele>1097.0000</ele>
      </trkpt>
      <trkpt lat="47.97577440" lon="8.190961400">
        <ele>1097.0000</ele>
      </trkpt>
      <trkpt lat="47.97633810" lon="8.191004990">
        <ele>1097.0000</ele>
      </trkpt>
      <trkpt lat="47.97644820" lon="8.190928500">
        <ele>1097.0000</ele>
      </trkpt>
      <trkpt lat="47.97700610" lon="8.190876240">
        <ele>1097.0000</ele>
      </trkpt>
      <trkpt lat="47.97741900" lon="8.190339800">
        <ele>1094.0000</ele>
      </trkpt>
      <trkpt lat="47.97759500" lon="8.189905280">
        <ele>1094.0000</ele>
      </trkpt>
      <trkpt lat="47.97763810" lon="8.189545900">
        <ele>1084.0000</ele>
        <time>2010-05-05T10:17:39Z</time>
      </trkpt>
      <trkpt lat="47.97772740" lon="8.188566400">
        <ele>1076.0000</ele>
        <time>2010-05-05T10:18:05Z</time>
      </trkpt>
      <trkpt lat="47.97777460" lon="8.187915080">
        <ele>1072.0000</ele>
      </trkpt>
      <trkpt lat="47.97782840" lon="8.187711230">
        <ele>1072.0000</ele>
        <time>2010-05-05T10:18:31Z</time>
      </trkpt>
      <trkpt lat="47.97778530" lon="8.187534210">
        <ele>1072.0000</ele>
        <time>2010-05-05T10:18:31Z</time>
      </trkpt>
      <trkpt lat="47.97756570" lon="8.187118800">
        <ele>1072.0000</ele>
        <time>2010-05-05T10:18:47Z</time>
      </trkpt>
      <trkpt lat="47.97743100" lon="8.186839200">
        <ele>1075.0000</ele>
        <time>2010-05-05T10:18:56Z</time>
      </trkpt>
      <trkpt lat="47.97741750" lon="8.186839200">
        <ele>1075.0000</ele>
        <time>2010-05-05T10:18:57Z</time>
      </trkpt>
      <trkpt lat="47.97709410" lon="8.186279900">
        <ele>1075.0000</ele>
        <time>2010-05-05T10:19:17Z</time>
      </trkpt>
      <trkpt lat="47.97710050" lon="8.185959400">
        <ele>1078.0000</ele>
        <time>2010-05-05T10:19:25Z</time>
      </trkpt>
      <trkpt lat="47.97715440" lon="8.185285000">
        <ele>1079.0000</ele>
        <time>2010-05-05T10:19:44Z</time>
      </trkpt>
      <trkpt lat="47.97714100" lon="8.184495400">
        <ele>1073.0000</ele>
        <time>2010-05-05T10:20:05Z</time>
      </trkpt>
      <trkpt lat="47.97709940" lon="8.184192180">
        <ele>1073.0000</ele>
        <time>2010-05-05T10:20:14Z</time>
      </trkpt>
      <trkpt lat="47.97685880" lon="8.183559170">
        <ele>1038.0000</ele>
        <time>2010-05-05T10:20:35Z</time>
      </trkpt>
      <trkpt lat="47.97672330" lon="8.182998500">
        <ele>1038.0000</ele>
        <time>2010-05-05T10:20:49Z</time>
      </trkpt>
      <trkpt lat="47.97672330" lon="8.182324100">
        <ele>1027.0000</ele>
        <time>2010-05-05T10:21:07Z</time>
      </trkpt>
      <trkpt lat="47.97680420" lon="8.181847000">
        <ele>1015.0000</ele>
        <time>2010-05-05T10:21:20Z</time>
      </trkpt>
      <trkpt lat="47.97695240" lon="8.181583800">
        <ele>1015.0000</ele>
        <time>2010-05-05T10:21:29Z</time>
      </trkpt>
      <trkpt lat="47.97696580" lon="8.181435800">
        <ele>1015.0000</ele>
        <time>2010-05-05T10:21:33Z</time>
      </trkpt>
      <trkpt lat="47.97695580" lon="8.181306120">
        <ele>1015.0000</ele>
        <time>2010-05-05T10:21:37Z</time>
      </trkpt>
      <trkpt lat="47.97698450" lon="8.181091540">
        <ele>1002.0000</ele>
        <time>2010-05-05T10:21:43Z</time>
      </trkpt>
      <trkpt lat="47.97722180" lon="8.180448800">
        <ele>1024.0000</ele>
        <time>2010-05-05T10:22:03Z</time>
      </trkpt>
      <trkpt lat="47.97761260" lon="8.179725000">
        <ele>1010.0000</ele>
        <time>2010-05-05T10:22:28Z</time>
      </trkpt>
      <trkpt lat="47.97813810" lon="8.179116400">
        <ele>1009.0000</ele>
        <time>2010-05-05T10:22:55Z</time>
      </trkpt>
      <trkpt lat="47.97859630" lon="8.178688700">
        <ele>990.00000</ele>
        <time>2010-05-05T10:23:16Z</time>
      </trkpt>
      <trkpt lat="47.97928280" lon="8.178318140">
        <ele>1002.0000</ele>
        <time>2010-05-05T10:23:47Z</time>
      </trkpt>
      <trkpt lat="47.97891970" lon="8.178096500">
        <ele>1002.0000</ele>
        <time>2010-05-05T10:24:02Z</time>
      </trkpt>
      <trkpt lat="47.97840760" lon="8.177948500">
        <ele>990.00000</ele>
        <time>2010-05-05T10:24:23Z</time>
      </trkpt>
      <trkpt lat="47.97840760" lon="8.177932100">
        <ele>990.00000</ele>
        <time>2010-05-05T10:24:24Z</time>
      </trkpt>
      <trkpt lat="47.97815160" lon="8.177751100">
        <ele>970.00000</ele>
        <time>2010-05-05T10:24:35Z</time>
      </trkpt>
      <trkpt lat="47.97768840" lon="8.177803150">
        <ele>961.00000</ele>
        <time>2010-05-05T10:24:53Z</time>
      </trkpt>
      <trkpt lat="47.97737240" lon="8.177851430">
        <ele>961.00000</ele>
        <time>2010-05-05T10:25:04Z</time>
      </trkpt>
      <trkpt lat="47.97721430" lon="8.177829980">
        <ele>961.00000</ele>
        <time>2010-05-05T10:25:12Z</time>
      </trkpt>
      <trkpt lat="47.97720830" lon="8.177570100">
        <ele>961.00000</ele>
        <time>2010-05-05T10:25:17Z</time>
      </trkpt>
      <trkpt lat="47.97723530" lon="8.177290500">
        <ele>961.00000</ele>
        <time>2010-05-05T10:25:24Z</time>
      </trkpt>
      <trkpt lat="47.97742400" lon="8.176764100">
        <ele>947.00000</ele>
        <time>2010-05-05T10:25:40Z</time>
      </trkpt>
      <trkpt lat="47.97770700" lon="8.176270600">
        <ele>947.00000</ele>
        <time>2010-05-05T10:25:58Z</time>
      </trkpt>
      <trkpt lat="47.97792540" lon="8.175791500">
        <ele>944.00000</ele>
        <time>2010-05-05T10:26:14Z</time>
      </trkpt>
      <trkpt lat="47.97803310" lon="8.175534000">
        <ele>944.00000</ele>
        <time>2010-05-05T10:26:22Z</time>
      </trkpt>
      <trkpt lat="47.97782840" lon="8.175630560">
        <ele>940.00000</ele>
        <time>2010-05-05T10:26:32Z</time>
      </trkpt>
      <trkpt lat="47.97755870" lon="8.175645600">
        <ele>940.00000</ele>
        <time>2010-05-05T10:26:44Z</time>
      </trkpt>
      <trkpt lat="47.97716410" lon="8.175721760">
        <ele>940.00000</ele>
        <time>2010-05-05T10:26:50Z</time>
      </trkpt>
      <trkpt lat="47.97712820" lon="8.175609110">
        <ele>940.00000</ele>
      </trkpt>
      <trkpt lat="47.97758420" lon="8.175196050">
        <ele>940.00000</ele>
        <time>2010-05-05T10:27:10Z</time>
      </trkpt>
      <trkpt lat="47.97797210" lon="8.174943920">
        <ele>940.00000</ele>
        <time>2010-05-05T10:27:20Z</time>
      </trkpt>
      <trkpt lat="47.97807620" lon="8.174825900">
        <ele>940.00000</ele>
        <time>2010-05-05T10:27:24Z</time>
      </trkpt>
      <trkpt lat="47.97811930" lon="8.174627420">
        <ele>940.00000</ele>
        <time>2010-05-05T10:27:33Z</time>
      </trkpt>
      <trkpt lat="47.97823780" lon="8.174364560">
        <ele>940.00000</ele>
        <time>2010-05-05T10:27:43Z</time>
      </trkpt>
      <trkpt lat="47.97845680" lon="8.174005150">
        <ele>940.00000</ele>
        <time>2010-05-05T10:27:55Z</time>
      </trkpt>
      <trkpt lat="47.97853940" lon="8.173554530">
        <ele>940.00000</ele>
        <time>2010-05-05T10:28:09Z</time>
      </trkpt>
      <trkpt lat="47.97852510" lon="8.172599670">
        <ele>940.00000</ele>
        <time>2010-05-05T10:28:34Z</time>
      </trkpt>
      <trkpt lat="47.97853580" lon="8.171221010">
        <ele>941.00000</ele>
        <time>2010-05-05T10:29:11Z</time>
      </trkpt>
      <trkpt lat="47.97862920" lon="8.170995700">
        <ele>941.00000</ele>
        <time>2010-05-05T10:29:18Z</time>
      </trkpt>
      <trkpt lat="47.97902780" lon="8.170512900">
        <ele>940.00000</ele>
        <time>2010-05-05T10:29:38Z</time>
      </trkpt>
      <trkpt lat="47.97945510" lon="8.169863800">
        <ele>942.00000</ele>
        <time>2010-05-05T10:30:03Z</time>
      </trkpt>
      <trkpt lat="47.97967060" lon="8.169359600">
        <ele>940.00000</ele>
        <time>2010-05-05T10:30:19Z</time>
      </trkpt>
      <trkpt lat="47.97982860" lon="8.168769500">
        <ele>940.00000</ele>
        <time>2010-05-05T10:30:36Z</time>
      </trkpt>
      <trkpt lat="47.97997580" lon="8.168023800">
        <ele>940.00000</ele>
        <time>2010-05-05T10:30:57Z</time>
      </trkpt>
      <trkpt lat="47.98010510" lon="8.167192300">
        <ele>941.00000</ele>
        <time>2010-05-05T10:31:20Z</time>
      </trkpt>
      <trkpt lat="47.98016250" lon="8.166752500">
        <ele>942.00000</ele>
        <time>2010-05-05T10:31:32Z</time>
      </trkpt>
      <trkpt lat="47.98022720" lon="8.166468100">
        <ele>942.00000</ele>
        <time>2010-05-05T10:31:40Z</time>
      </trkpt>
      <trkpt lat="47.98037800" lon="8.166414500">
        <ele>942.00000</ele>
        <time>2010-05-05T10:31:46Z</time>
      </trkpt>
      <trkpt lat="47.98048570" lon="8.166419900">
        <ele>946.00000</ele>
        <time>2010-05-05T10:31:50Z</time>
      </trkpt>
      <trkpt lat="47.98066170" lon="8.166527200">
        <ele>946.00000</ele>
        <time>2010-05-05T10:31:58Z</time>
      </trkpt>
      <trkpt lat="47.98086630" lon="8.166629100">
        <ele>946.00000</ele>
        <time>2010-05-05T10:32:06Z</time>
      </trkpt>
      <trkpt lat="47.98114280" lon="8.166709500">
        <ele>946.00000</ele>
        <time>2010-05-05T10:32:18Z</time>
      </trkpt>
      <trkpt lat="47.98133320" lon="8.166693400">
        <ele>958.00000</ele>
        <time>2010-05-05T10:32:25Z</time>
      </trkpt>
      <trkpt lat="47.98153780" lon="8.166655900">
        <ele>958.00000</ele>
        <time>2010-05-05T10:32:34Z</time>
      </trkpt>
      <trkpt lat="47.98170660" lon="8.166505700">
        <ele>958.00000</ele>
        <time>2010-05-05T10:32:41Z</time>
      </trkpt>
      <trkpt lat="47.98184300" lon="8.166216000">
        <ele>961.00000</ele>
        <time>2010-05-05T10:32:51Z</time>
      </trkpt>
      <trkpt lat="47.98169580" lon="8.166017500">
        <ele>961.00000</ele>
        <time>2010-05-05T10:32:59Z</time>
      </trkpt>
      <trkpt lat="47.98174250" lon="8.165862000">
        <ele>961.00000</ele>
        <time>2010-05-05T10:33:03Z</time>
      </trkpt>
      <trkpt lat="47.98177480" lon="8.165717100">
        <ele>961.00000</ele>
        <time>2010-05-05T10:33:07Z</time>
      </trkpt>
      <trkpt lat="47.98147320" lon="8.164853500">
        <ele>964.00000</ele>
        <time>2010-05-05T10:33:34Z</time>
      </trkpt>
      <trkpt lat="47.98157730" lon="8.164719300">
        <ele>964.00000</ele>
        <time>2010-05-05T10:33:39Z</time>
      </trkpt>
      <trkpt lat="47.98168150" lon="8.164504800">
        <ele>964.00000</ele>
        <time>2010-05-05T10:33:46Z</time>
      </trkpt>
      <trkpt lat="47.98164910" lon="8.164177500">
        <ele>964.00000</ele>
        <time>2010-05-05T10:33:55Z</time>
      </trkpt>
      <trkpt lat="47.98162760" lon="8.163989800">
        <ele>964.00000</ele>
        <time>2010-05-05T10:34:00Z</time>
      </trkpt>
      <trkpt lat="47.98162040" lon="8.163861000">
        <ele>964.00000</ele>
        <time>2010-05-05T10:34:04Z</time>
      </trkpt>
    </trkseg>
  </trk>
</gpx>
